sensor_id;sensor_type;location;lat;lon;timestamp;P1;durP1;ratioP1;P2;durP2;ratioP2
4272;SDS011;63887;53.656;9.810;2023-03-01T00:00:41;21.08;;;13.65;;
4272;SDS011;63887;53.656;9.810;2023-03-01T00:03:11;19.63;;;14.30;;
4272;SDS011;63887;53.656;9.810;2023-03-01T00:05:43;23.63;;;13.15;;
4272;SDS011;63887;53.656;9.810;2023-03-01T00:08:11;22.73;;;13.00;;
4272;SDS011;63887;53.656;9.810;2023-03-01T00:10:37;21.08;;;14.27;;
4272;SDS011;63887;53.656;9.810;2023-03-01T00:13:04;20.42;;;12.30;;
4272;SDS011;63887;53.656;9.810;2023-03-01T00:15:31;13.82;;;12.32;;
4272;SDS011;63887;53.656;9.810;2023-03-01T00:17:57;19.70;;;14.25;;
4272;SDS011;63887;53.656;9.810;2023-03-01T00:20:24;18.05;;;14.02;;
4272;SDS011;63887;53.656;9.810;2023-03-01T00:22:50;14.77;;;13.18;;
4272;SDS011;63887;53.656;9.810;2023-03-01T00:25:18;21.35;;;14.20;;
4272;SDS011;63887;53.656;9.810;2023-03-01T00:27:44;27.17;;;14.52;;
4272;SDS011;63887;53.656;9.810;2023-03-01T00:30:13;15.10;;;13.55;;
4272;SDS011;63887;53.656;9.810;2023-03-01T00:32:40;23.65;;;12.75;;
4272;SDS011;63887;53.656;9.810;2023-03-01T00:35:07;32.58;;;13.95;;
4272;SDS011;63887;53.656;9.810;2023-03-01T00:37:34;17.77;;;13.43;;
4272;SDS011;63887;53.656;9.810;2023-03-01T00:40:00;19.90;;;12.18;;
4272;SDS011;63887;53.656;9.810;2023-03-01T00:42:32;18.90;;;12.13;;
4272;SDS011;63887;53.656;9.810;2023-03-01T00:44:58;18.63;;;12.80;;
4272;SDS011;63887;53.656;9.810;2023-03-01T00:47:25;21.92;;;11.82;;
4272;SDS011;63887;53.656;9.810;2023-03-01T00:49:51;15.55;;;12.20;;
4272;SDS011;63887;53.656;9.810;2023-03-01T00:52:18;15.80;;;11.80;;
4272;SDS011;63887;53.656;9.810;2023-03-01T00:54:44;15.55;;;11.48;;
4272;SDS011;63887;53.656;9.810;2023-03-01T00:57:11;15.05;;;11.63;;
4272;SDS011;63887;53.656;9.810;2023-03-01T00:59:38;16.80;;;12.40;;
4272;SDS011;63887;53.656;9.810;2023-03-01T01:02:05;16.80;;;13.05;;
4272;SDS011;63887;53.656;9.810;2023-03-01T01:04:31;15.23;;;12.80;;
4272;SDS011;63887;53.656;9.810;2023-03-01T01:06:58;16.60;;;13.10;;
4272;SDS011;63887;53.656;9.810;2023-03-01T01:09:24;15.35;;;11.95;;
4272;SDS011;63887;53.656;9.810;2023-03-01T01:11:51;19.00;;;12.38;;
4272;SDS011;63887;53.656;9.810;2023-03-01T01:14:17;21.25;;;12.23;;
4272;SDS011;63887;53.656;9.810;2023-03-01T01:16:46;15.48;;;12.00;;
4272;SDS011;63887;53.656;9.810;2023-03-01T01:19:13;16.40;;;12.20;;
4272;SDS011;63887;53.656;9.810;2023-03-01T01:21:40;15.65;;;11.95;;
4272;SDS011;63887;53.656;9.810;2023-03-01T01:24:08;15.95;;;12.02;;
4272;SDS011;63887;53.656;9.810;2023-03-01T01:26:34;11.27;;;10.23;;
4272;SDS011;63887;53.656;9.810;2023-03-01T01:29:01;16.80;;;12.38;;
4272;SDS011;63887;53.656;9.810;2023-03-01T01:31:29;25.25;;;12.63;;
4272;SDS011;63887;53.656;9.810;2023-03-01T01:33:58;11.45;;;10.45;;
4272;SDS011;63887;53.656;9.810;2023-03-01T01:36:25;13.63;;;10.48;;
4272;SDS011;63887;53.656;9.810;2023-03-01T01:38:51;15.27;;;11.45;;
4272;SDS011;63887;53.656;9.810;2023-03-01T01:41:18;17.60;;;12.65;;
4272;SDS011;63887;53.656;9.810;2023-03-01T01:43:47;15.45;;;11.27;;
4272;SDS011;63887;53.656;9.810;2023-03-01T01:46:16;14.27;;;11.23;;
4272;SDS011;63887;53.656;9.810;2023-03-01T01:48:52;12.88;;;11.07;;
4272;SDS011;63887;53.656;9.810;2023-03-01T01:51:25;14.50;;;11.27;;
4272;SDS011;63887;53.656;9.810;2023-03-01T01:53:55;20.33;;;12.00;;
4272;SDS011;63887;53.656;9.810;2023-03-01T01:56:25;15.25;;;11.90;;
4272;SDS011;63887;53.656;9.810;2023-03-01T01:58:54;13.02;;;11.68;;
4272;SDS011;63887;53.656;9.810;2023-03-01T02:01:21;14.95;;;11.38;;
4272;SDS011;63887;53.656;9.810;2023-03-01T02:03:48;13.80;;;11.48;;
4272;SDS011;63887;53.656;9.810;2023-03-01T02:06:17;14.93;;;11.18;;
4272;SDS011;63887;53.656;9.810;2023-03-01T02:08:49;15.15;;;12.02;;
4272;SDS011;63887;53.656;9.810;2023-03-01T02:11:17;15.75;;;11.65;;
4272;SDS011;63887;53.656;9.810;2023-03-01T02:13:44;17.58;;;11.40;;
4272;SDS011;63887;53.656;9.810;2023-03-01T02:16:14;12.80;;;10.85;;
4272;SDS011;63887;53.656;9.810;2023-03-01T02:18:41;12.60;;;10.77;;
4272;SDS011;63887;53.656;9.810;2023-03-01T02:21:12;11.70;;;10.60;;
4272;SDS011;63887;53.656;9.810;2023-03-01T02:23:54;13.52;;;10.98;;
4272;SDS011;63887;53.656;9.810;2023-03-01T02:26:23;21.02;;;11.40;;
4272;SDS011;63887;53.656;9.810;2023-03-01T02:28:55;13.10;;;10.50;;
4272;SDS011;63887;53.656;9.810;2023-03-01T02:31:21;21.13;;;12.63;;
4272;SDS011;63887;53.656;9.810;2023-03-01T02:34:05;10.90;;;9.23;;
4272;SDS011;63887;53.656;9.810;2023-03-01T02:36:34;15.52;;;10.15;;
4272;SDS011;63887;53.656;9.810;2023-03-01T02:39:04;11.38;;;10.02;;
4272;SDS011;63887;53.656;9.810;2023-03-01T02:41:39;12.05;;;10.77;;
4272;SDS011;63887;53.656;9.810;2023-03-01T02:44:09;12.57;;;9.85;;
4272;SDS011;63887;53.656;9.810;2023-03-01T02:46:41;10.93;;;9.73;;
4272;SDS011;63887;53.656;9.810;2023-03-01T02:49:16;17.63;;;10.98;;
4272;SDS011;63887;53.656;9.810;2023-03-01T02:51:47;11.93;;;10.73;;
4272;SDS011;63887;53.656;9.810;2023-03-01T02:54:21;12.82;;;11.60;;
4272;SDS011;63887;53.656;9.810;2023-03-01T02:56:53;10.43;;;9.63;;
4272;SDS011;63887;53.656;9.810;2023-03-01T02:59:21;12.13;;;11.05;;
4272;SDS011;63887;53.656;9.810;2023-03-01T03:01:50;11.18;;;10.02;;
4272;SDS011;63887;53.656;9.810;2023-03-01T03:04:17;18.15;;;9.40;;
4272;SDS011;63887;53.656;9.810;2023-03-01T03:06:46;15.95;;;12.02;;
4272;SDS011;63887;53.656;9.810;2023-03-01T03:09:14;15.98;;;12.98;;
4272;SDS011;63887;53.656;9.810;2023-03-01T03:11:41;11.60;;;9.85;;
4272;SDS011;63887;53.656;9.810;2023-03-01T03:14:08;16.67;;;10.90;;
4272;SDS011;63887;53.656;9.810;2023-03-01T03:16:40;11.02;;;9.77;;
4272;SDS011;63887;53.656;9.810;2023-03-01T03:19:07;11.32;;;10.23;;
4272;SDS011;63887;53.656;9.810;2023-03-01T03:21:34;10.48;;;9.27;;
4272;SDS011;63887;53.656;9.810;2023-03-01T03:24:00;13.98;;;9.52;;
4272;SDS011;63887;53.656;9.810;2023-03-01T03:26:27;10.70;;;9.60;;
4272;SDS011;63887;53.656;9.810;2023-03-01T03:28:54;14.15;;;11.20;;
4272;SDS011;63887;53.656;9.810;2023-03-01T03:31:21;11.55;;;9.93;;
4272;SDS011;63887;53.656;9.810;2023-03-01T03:33:49;11.80;;;10.52;;
4272;SDS011;63887;53.656;9.810;2023-03-01T03:36:15;11.32;;;9.85;;
4272;SDS011;63887;53.656;9.810;2023-03-01T03:38:43;10.30;;;9.40;;
4272;SDS011;63887;53.656;9.810;2023-03-01T03:41:10;11.32;;;10.23;;
4272;SDS011;63887;53.656;9.810;2023-03-01T03:43:37;10.73;;;9.65;;
4272;SDS011;63887;53.656;9.810;2023-03-01T03:46:06;10.98;;;9.80;;
4272;SDS011;63887;53.656;9.810;2023-03-01T03:48:33;11.43;;;10.43;;
4272;SDS011;63887;53.656;9.810;2023-03-01T03:51:02;10.18;;;8.90;;
4272;SDS011;63887;53.656;9.810;2023-03-01T03:53:30;11.10;;;10.05;;
4272;SDS011;63887;53.656;9.810;2023-03-01T03:55:56;12.73;;;9.80;;
4272;SDS011;63887;53.656;9.810;2023-03-01T03:58:24;15.40;;;11.00;;
4272;SDS011;63887;53.656;9.810;2023-03-01T04:00:52;10.30;;;9.38;;
4272;SDS011;63887;53.656;9.810;2023-03-01T04:03:20;13.63;;;10.45;;
4272;SDS011;63887;53.656;9.810;2023-03-01T04:05:48;17.02;;;10.25;;
4272;SDS011;63887;53.656;9.810;2023-03-01T04:08:17;12.65;;;10.88;;
4272;SDS011;63887;53.656;9.810;2023-03-01T04:10:46;8.75;;;8.23;;
4272;SDS011;63887;53.656;9.810;2023-03-01T04:13:14;13.65;;;8.68;;
4272;SDS011;63887;53.656;9.810;2023-03-01T04:15:44;10.73;;;9.05;;
4272;SDS011;63887;53.656;9.810;2023-03-01T04:18:10;13.25;;;8.45;;
4272;SDS011;63887;53.656;9.810;2023-03-01T04:20:39;10.75;;;9.18;;
4272;SDS011;63887;53.656;9.810;2023-03-01T04:23:06;10.43;;;9.50;;
4272;SDS011;63887;53.656;9.810;2023-03-01T04:25:39;10.00;;;9.30;;
4272;SDS011;63887;53.656;9.810;2023-03-01T04:28:08;11.43;;;9.73;;
4272;SDS011;63887;53.656;9.810;2023-03-01T04:30:34;14.20;;;9.15;;
4272;SDS011;63887;53.656;9.810;2023-03-01T04:33:02;10.55;;;9.48;;
4272;SDS011;63887;53.656;9.810;2023-03-01T04:35:29;13.52;;;9.55;;
4272;SDS011;63887;53.656;9.810;2023-03-01T04:37:56;10.13;;;9.40;;
4272;SDS011;63887;53.656;9.810;2023-03-01T04:40:22;13.80;;;9.90;;
4272;SDS011;63887;53.656;9.810;2023-03-01T04:42:50;9.75;;;8.93;;
4272;SDS011;63887;53.656;9.810;2023-03-01T04:45:17;11.25;;;10.15;;
4272;SDS011;63887;53.656;9.810;2023-03-01T04:47:44;13.57;;;10.32;;
4272;SDS011;63887;53.656;9.810;2023-03-01T04:50:12;11.35;;;10.23;;
4272;SDS011;63887;53.656;9.810;2023-03-01T04:52:41;10.65;;;9.75;;
4272;SDS011;63887;53.656;9.810;2023-03-01T04:55:08;11.00;;;9.82;;
4272;SDS011;63887;53.656;9.810;2023-03-01T04:57:35;15.10;;;9.68;;
4272;SDS011;63887;53.656;9.810;2023-03-01T05:00:03;14.90;;;10.70;;
4272;SDS011;63887;53.656;9.810;2023-03-01T05:02:45;11.25;;;10.05;;
4272;SDS011;63887;53.656;9.810;2023-03-01T05:05:13;11.82;;;10.82;;
4272;SDS011;63887;53.656;9.810;2023-03-01T05:07:39;13.95;;;12.70;;
4272;SDS011;63887;53.656;9.810;2023-03-01T05:10:06;12.32;;;10.63;;
4272;SDS011;63887;53.656;9.810;2023-03-01T05:12:34;19.05;;;11.75;;
4272;SDS011;63887;53.656;9.810;2023-03-01T05:15:04;12.10;;;10.93;;
4272;SDS011;63887;53.656;9.810;2023-03-01T05:17:32;11.63;;;10.57;;
4272;SDS011;63887;53.656;9.810;2023-03-01T05:19:58;12.23;;;11.30;;
4272;SDS011;63887;53.656;9.810;2023-03-01T05:22:25;22.95;;;11.40;;
4272;SDS011;63887;53.656;9.810;2023-03-01T05:24:52;11.73;;;10.52;;
4272;SDS011;63887;53.656;9.810;2023-03-01T05:27:19;12.70;;;11.35;;
4272;SDS011;63887;53.656;9.810;2023-03-01T05:29:47;21.23;;;11.63;;
4272;SDS011;63887;53.656;9.810;2023-03-01T05:32:15;13.20;;;11.93;;
4272;SDS011;63887;53.656;9.810;2023-03-01T05:34:42;12.75;;;11.15;;
4272;SDS011;63887;53.656;9.810;2023-03-01T05:37:09;16.75;;;12.85;;
4272;SDS011;63887;53.656;9.810;2023-03-01T05:39:35;15.27;;;12.00;;
4272;SDS011;63887;53.656;9.810;2023-03-01T05:42:02;18.48;;;12.25;;
4272;SDS011;63887;53.656;9.810;2023-03-01T05:44:29;14.77;;;12.10;;
4272;SDS011;63887;53.656;9.810;2023-03-01T05:46:56;15.35;;;12.05;;
4272;SDS011;63887;53.656;9.810;2023-03-01T05:49:24;16.42;;;12.80;;
4272;SDS011;63887;53.656;9.810;2023-03-01T05:51:51;20.33;;;11.52;;
4272;SDS011;63887;53.656;9.810;2023-03-01T05:54:19;20.00;;;12.25;;
4272;SDS011;63887;53.656;9.810;2023-03-01T05:56:46;15.75;;;12.57;;
4272;SDS011;63887;53.656;9.810;2023-03-01T05:59:13;18.63;;;13.57;;
4272;SDS011;63887;53.656;9.810;2023-03-01T06:01:41;12.65;;;11.50;;
4272;SDS011;63887;53.656;9.810;2023-03-01T06:04:07;12.98;;;11.75;;
4272;SDS011;63887;53.656;9.810;2023-03-01T06:06:35;14.45;;;12.48;;
4272;SDS011;63887;53.656;9.810;2023-03-01T06:09:03;17.88;;;12.00;;
4272;SDS011;63887;53.656;9.810;2023-03-01T06:11:29;15.40;;;10.95;;
4272;SDS011;63887;53.656;9.810;2023-03-01T06:13:56;13.57;;;11.18;;
4272;SDS011;63887;53.656;9.810;2023-03-01T06:16:22;13.00;;;11.82;;
4272;SDS011;63887;53.656;9.810;2023-03-01T06:18:49;13.75;;;12.30;;
4272;SDS011;63887;53.656;9.810;2023-03-01T06:21:16;16.80;;;12.65;;
4272;SDS011;63887;53.656;9.810;2023-03-01T06:23:43;11.63;;;10.50;;
4272;SDS011;63887;53.656;9.810;2023-03-01T06:26:10;15.57;;;11.80;;
4272;SDS011;63887;53.656;9.810;2023-03-01T06:28:36;13.35;;;11.98;;
4272;SDS011;63887;53.656;9.810;2023-03-01T06:31:03;12.82;;;11.63;;
4272;SDS011;63887;53.656;9.810;2023-03-01T06:33:33;15.40;;;11.90;;
4272;SDS011;63887;53.656;9.810;2023-03-01T06:36:01;18.65;;;14.27;;
4272;SDS011;63887;53.656;9.810;2023-03-01T06:38:27;14.10;;;12.52;;
4272;SDS011;63887;53.656;9.810;2023-03-01T06:40:55;15.40;;;12.05;;
4272;SDS011;63887;53.656;9.810;2023-03-01T06:43:22;14.38;;;12.18;;
4272;SDS011;63887;53.656;9.810;2023-03-01T06:45:49;13.25;;;11.95;;
4272;SDS011;63887;53.656;9.810;2023-03-01T06:48:15;14.15;;;12.75;;
4272;SDS011;63887;53.656;9.810;2023-03-01T06:50:42;12.98;;;11.30;;
4272;SDS011;63887;53.656;9.810;2023-03-01T06:53:08;13.82;;;11.93;;
4272;SDS011;63887;53.656;9.810;2023-03-01T06:55:35;15.10;;;11.43;;
4272;SDS011;63887;53.656;9.810;2023-03-01T06:58:03;22.83;;;14.25;;
4272;SDS011;63887;53.656;9.810;2023-03-01T07:00:29;16.77;;;12.35;;
4272;SDS011;63887;53.656;9.810;2023-03-01T07:02:57;15.57;;;12.25;;
4272;SDS011;63887;53.656;9.810;2023-03-01T07:05:26;18.02;;;13.93;;
4272;SDS011;63887;53.656;9.810;2023-03-01T07:07:53;19.25;;;13.68;;
4272;SDS011;63887;53.656;9.810;2023-03-01T07:10:20;27.27;;;15.35;;
4272;SDS011;63887;53.656;9.810;2023-03-01T07:12:47;19.05;;;13.57;;
4272;SDS011;63887;53.656;9.810;2023-03-01T07:15:15;17.98;;;14.07;;
4272;SDS011;63887;53.656;9.810;2023-03-01T07:17:41;21.55;;;15.10;;
4272;SDS011;63887;53.656;9.810;2023-03-01T07:20:09;19.20;;;15.35;;
4272;SDS011;63887;53.656;9.810;2023-03-01T07:22:39;15.13;;;13.55;;
4272;SDS011;63887;53.656;9.810;2023-03-01T07:25:06;19.95;;;15.35;;
4272;SDS011;63887;53.656;9.810;2023-03-01T07:27:32;16.02;;;13.10;;
4272;SDS011;63887;53.656;9.810;2023-03-01T07:29:59;17.73;;;14.60;;
4272;SDS011;63887;53.656;9.810;2023-03-01T07:32:27;19.50;;;15.15;;
4272;SDS011;63887;53.656;9.810;2023-03-01T07:34:53;24.33;;;14.27;;
4272;SDS011;63887;53.656;9.810;2023-03-01T07:37:20;18.80;;;16.30;;
4272;SDS011;63887;53.656;9.810;2023-03-01T07:39:46;20.63;;;16.60;;
4272;SDS011;63887;53.656;9.810;2023-03-01T07:42:13;23.20;;;16.27;;
4272;SDS011;63887;53.656;9.810;2023-03-01T07:44:39;28.17;;;17.33;;
4272;SDS011;63887;53.656;9.810;2023-03-01T07:47:05;20.85;;;17.40;;
4272;SDS011;63887;53.656;9.810;2023-03-01T07:49:33;27.67;;;17.90;;
4272;SDS011;63887;53.656;9.810;2023-03-01T07:52:00;28.08;;;17.58;;
4272;SDS011;63887;53.656;9.810;2023-03-01T07:54:26;26.00;;;16.42;;
4272;SDS011;63887;53.656;9.810;2023-03-01T07:56:53;21.17;;;16.75;;
4272;SDS011;63887;53.656;9.810;2023-03-01T07:59:19;32.47;;;19.25;;
4272;SDS011;63887;53.656;9.810;2023-03-01T08:01:46;24.50;;;17.30;;
4272;SDS011;63887;53.656;9.810;2023-03-01T08:04:12;27.35;;;17.25;;
4272;SDS011;63887;53.656;9.810;2023-03-01T08:06:40;24.10;;;16.88;;
4272;SDS011;63887;53.656;9.810;2023-03-01T08:09:06;22.50;;;17.27;;
4272;SDS011;63887;53.656;9.810;2023-03-01T08:11:33;23.30;;;16.02;;
4272;SDS011;63887;53.656;9.810;2023-03-01T08:14:00;16.77;;;14.15;;
4272;SDS011;63887;53.656;9.810;2023-03-01T08:16:26;21.77;;;17.45;;
4272;SDS011;63887;53.656;9.810;2023-03-01T08:18:52;29.58;;;20.70;;
4272;SDS011;63887;53.656;9.810;2023-03-01T08:21:21;65.05;;;32.88;;
4272;SDS011;63887;53.656;9.810;2023-03-01T08:23:49;60.05;;;29.88;;
4272;SDS011;63887;53.656;9.810;2023-03-01T08:26:16;39.15;;;22.60;;
4272;SDS011;63887;53.656;9.810;2023-03-01T08:28:45;35.80;;;20.50;;
4272;SDS011;63887;53.656;9.810;2023-03-01T08:31:13;32.80;;;19.20;;
4272;SDS011;63887;53.656;9.810;2023-03-01T08:33:42;24.98;;;19.25;;
4272;SDS011;63887;53.656;9.810;2023-03-01T08:36:08;30.30;;;19.13;;
4272;SDS011;63887;53.656;9.810;2023-03-01T08:38:35;31.80;;;19.45;;
4272;SDS011;63887;53.656;9.810;2023-03-01T08:41:03;29.48;;;17.75;;
4272;SDS011;63887;53.656;9.810;2023-03-01T08:43:29;28.52;;;19.75;;
4272;SDS011;63887;53.656;9.810;2023-03-01T08:45:56;27.42;;;18.60;;
4272;SDS011;63887;53.656;9.810;2023-03-01T08:48:22;30.75;;;18.20;;
4272;SDS011;63887;53.656;9.810;2023-03-01T08:50:49;50.45;;;20.80;;
4272;SDS011;63887;53.656;9.810;2023-03-01T08:53:15;28.40;;;18.20;;
4272;SDS011;63887;53.656;9.810;2023-03-01T08:55:42;28.17;;;18.58;;
4272;SDS011;63887;53.656;9.810;2023-03-01T08:58:10;35.80;;;20.65;;
4272;SDS011;63887;53.656;9.810;2023-03-01T09:00:36;33.47;;;20.02;;
4272;SDS011;63887;53.656;9.810;2023-03-01T09:03:02;27.35;;;17.65;;
4272;SDS011;63887;53.656;9.810;2023-03-01T09:05:30;31.17;;;19.90;;
4272;SDS011;63887;53.656;9.810;2023-03-01T09:07:57;38.03;;;20.95;;
4272;SDS011;63887;53.656;9.810;2023-03-01T09:10:23;36.13;;;22.35;;
4272;SDS011;63887;53.656;9.810;2023-03-01T09:12:50;36.20;;;21.48;;
4272;SDS011;63887;53.656;9.810;2023-03-01T09:15:18;26.58;;;19.75;;
4272;SDS011;63887;53.656;9.810;2023-03-01T09:17:45;38.30;;;20.23;;
4272;SDS011;63887;53.656;9.810;2023-03-01T09:20:11;36.50;;;20.75;;
4272;SDS011;63887;53.656;9.810;2023-03-01T09:22:38;32.45;;;19.23;;
4272;SDS011;63887;53.656;9.810;2023-03-01T09:25:05;37.20;;;21.48;;
4272;SDS011;63887;53.656;9.810;2023-03-01T09:27:32;35.10;;;20.80;;
4272;SDS011;63887;53.656;9.810;2023-03-01T09:29:59;35.38;;;20.52;;
4272;SDS011;63887;53.656;9.810;2023-03-01T09:32:27;40.30;;;20.55;;
4272;SDS011;63887;53.656;9.810;2023-03-01T09:35:07;27.38;;;19.45;;
4272;SDS011;63887;53.656;9.810;2023-03-01T09:37:34;32.83;;;20.90;;
4272;SDS011;63887;53.656;9.810;2023-03-01T09:40:02;35.55;;;18.98;;
4272;SDS011;63887;53.656;9.810;2023-03-01T09:42:30;34.35;;;22.30;;
4272;SDS011;63887;53.656;9.810;2023-03-01T09:44:59;26.85;;;17.45;;
4272;SDS011;63887;53.656;9.810;2023-03-01T09:47:32;34.80;;;21.70;;
4272;SDS011;63887;53.656;9.810;2023-03-01T09:50:04;35.10;;;19.80;;
4272;SDS011;63887;53.656;9.810;2023-03-01T09:52:36;35.80;;;20.05;;
4272;SDS011;63887;53.656;9.810;2023-03-01T09:55:08;26.13;;;18.80;;
4272;SDS011;63887;53.656;9.810;2023-03-01T09:57:38;22.83;;;17.73;;
4272;SDS011;63887;53.656;9.810;2023-03-01T10:00:17;26.23;;;19.15;;
4272;SDS011;63887;53.656;9.810;2023-03-01T10:02:54;23.20;;;16.77;;
4272;SDS011;63887;53.656;9.810;2023-03-01T10:05:34;26.08;;;17.65;;
4272;SDS011;63887;53.656;9.810;2023-03-01T10:11:01;26.35;;;19.17;;
4272;SDS011;63887;53.656;9.810;2023-03-01T10:13:33;27.30;;;16.98;;
4272;SDS011;63887;53.656;9.810;2023-03-01T10:16:10;26.40;;;17.75;;
4272;SDS011;63887;53.656;9.810;2023-03-01T10:18:40;24.13;;;16.92;;
4272;SDS011;63887;53.656;9.810;2023-03-01T10:21:12;25.80;;;16.88;;
4272;SDS011;63887;53.656;9.810;2023-03-01T10:23:41;24.30;;;16.08;;
4272;SDS011;63887;53.656;9.810;2023-03-01T10:26:13;25.10;;;14.27;;
4272;SDS011;63887;53.656;9.810;2023-03-01T10:28:59;22.52;;;12.93;;
4272;SDS011;63887;53.656;9.810;2023-03-01T10:31:32;19.48;;;14.20;;
4272;SDS011;63887;53.656;9.810;2023-03-01T10:34:09;31.10;;;16.05;;
4272;SDS011;63887;53.656;9.810;2023-03-01T10:36:38;22.10;;;15.07;;
4272;SDS011;63887;53.656;9.810;2023-03-01T10:39:10;19.02;;;13.60;;
4272;SDS011;63887;53.656;9.810;2023-03-01T10:41:45;24.40;;;15.57;;
4272;SDS011;63887;53.656;9.810;2023-03-01T10:44:34;20.20;;;14.80;;
4272;SDS011;63887;53.656;9.810;2023-03-01T10:47:03;16.42;;;14.52;;
4272;SDS011;63887;53.656;9.810;2023-03-01T10:49:31;20.30;;;15.13;;
4272;SDS011;63887;53.656;9.810;2023-03-01T10:52:11;16.40;;;13.80;;
4272;SDS011;63887;53.656;9.810;2023-03-01T10:54:50;21.65;;;15.60;;
4272;SDS011;63887;53.656;9.810;2023-03-01T10:57:29;21.17;;;15.90;;
4272;SDS011;63887;53.656;9.810;2023-03-01T11:00:10;22.45;;;14.55;;
4272;SDS011;63887;53.656;9.810;2023-03-01T11:02:42;21.65;;;15.32;;
4272;SDS011;63887;53.656;9.810;2023-03-01T11:05:16;23.77;;;15.13;;
4272;SDS011;63887;53.656;9.810;2023-03-01T11:07:48;27.75;;;14.50;;
4272;SDS011;63887;53.656;9.810;2023-03-01T11:10:17;18.45;;;14.15;;
4272;SDS011;63887;53.656;9.810;2023-03-01T11:12:45;22.45;;;16.42;;
4272;SDS011;63887;53.656;9.810;2023-03-01T11:15:19;28.67;;;16.25;;
4272;SDS011;63887;53.656;9.810;2023-03-01T11:17:48;30.95;;;17.73;;
4272;SDS011;63887;53.656;9.810;2023-03-01T11:20:18;25.42;;;16.30;;
4272;SDS011;63887;53.656;9.810;2023-03-01T11:22:50;31.05;;;17.55;;
4272;SDS011;63887;53.656;9.810;2023-03-01T11:25:20;26.10;;;18.27;;
4272;SDS011;63887;53.656;9.810;2023-03-01T11:27:50;28.60;;;18.58;;
4272;SDS011;63887;53.656;9.810;2023-03-01T11:30:20;31.05;;;17.58;;
4272;SDS011;63887;53.656;9.810;2023-03-01T11:32:50;33.70;;;20.58;;
4272;SDS011;63887;53.656;9.810;2023-03-01T11:35:28;33.58;;;19.30;;
4272;SDS011;63887;53.656;9.810;2023-03-01T11:37:59;35.08;;;19.40;;
4272;SDS011;63887;53.656;9.810;2023-03-01T11:40:37;28.30;;;19.17;;
4272;SDS011;63887;53.656;9.810;2023-03-01T11:43:11;27.60;;;19.02;;
4272;SDS011;63887;53.656;9.810;2023-03-01T11:45:52;31.13;;;19.70;;
4272;SDS011;63887;53.656;9.810;2023-03-01T11:48:34;32.45;;;19.17;;
4272;SDS011;63887;53.656;9.810;2023-03-01T11:51:14;32.33;;;18.83;;
4272;SDS011;63887;53.656;9.810;2023-03-01T11:53:51;35.17;;;21.00;;
4272;SDS011;63887;53.656;9.810;2023-03-01T11:56:28;29.60;;;19.75;;
4272;SDS011;63887;53.656;9.810;2023-03-01T11:59:02;27.13;;;17.85;;
4272;SDS011;63887;53.656;9.810;2023-03-01T12:01:49;34.20;;;20.90;;
4272;SDS011;63887;53.656;9.810;2023-03-01T12:07:44;40.03;;;20.98;;
4272;SDS011;63887;53.656;9.810;2023-03-01T12:10:22;35.78;;;20.58;;
4272;SDS011;63887;53.656;9.810;2023-03-01T12:15:46;36.25;;;21.10;;
4272;SDS011;63887;53.656;9.810;2023-03-01T12:18:49;34.58;;;20.65;;
4272;SDS011;63887;53.656;9.810;2023-03-01T12:21:30;34.38;;;18.65;;
4272;SDS011;63887;53.656;9.810;2023-03-01T12:24:25;33.25;;;19.88;;
4272;SDS011;63887;53.656;9.810;2023-03-01T12:27:08;34.28;;;21.05;;
4272;SDS011;63887;53.656;9.810;2023-03-01T12:29:46;34.13;;;20.08;;
4272;SDS011;63887;53.656;9.810;2023-03-01T12:32:28;41.17;;;19.70;;
4272;SDS011;63887;53.656;9.810;2023-03-01T12:35:11;38.10;;;21.85;;
4272;SDS011;63887;53.656;9.810;2023-03-01T12:37:54;40.45;;;20.77;;
4272;SDS011;63887;53.656;9.810;2023-03-01T12:40:31;32.63;;;20.70;;
4272;SDS011;63887;53.656;9.810;2023-03-01T12:43:10;31.80;;;17.27;;
4272;SDS011;63887;53.656;9.810;2023-03-01T12:45:48;35.20;;;19.98;;
4272;SDS011;63887;53.656;9.810;2023-03-01T12:48:24;26.30;;;18.27;;
4272;SDS011;63887;53.656;9.810;2023-03-01T12:51:06;31.17;;;20.00;;
4272;SDS011;63887;53.656;9.810;2023-03-01T12:53:36;33.58;;;18.85;;
4272;SDS011;63887;53.656;9.810;2023-03-01T12:56:08;36.03;;;18.35;;
4272;SDS011;63887;53.656;9.810;2023-03-01T12:58:39;33.47;;;19.08;;
4272;SDS011;63887;53.656;9.810;2023-03-01T13:01:18;39.35;;;18.02;;
4272;SDS011;63887;53.656;9.810;2023-03-01T13:04:01;21.73;;;15.02;;
4272;SDS011;63887;53.656;9.810;2023-03-01T13:06:38;24.20;;;16.60;;
4272;SDS011;63887;53.656;9.810;2023-03-01T13:09:13;32.13;;;16.83;;
4272;SDS011;63887;53.656;9.810;2023-03-01T13:11:47;30.98;;;15.48;;
4272;SDS011;63887;53.656;9.810;2023-03-01T13:17:02;30.67;;;17.52;;
4272;SDS011;63887;53.656;9.810;2023-03-01T13:19:29;26.02;;;18.08;;
4272;SDS011;63887;53.656;9.810;2023-03-01T13:21:57;28.17;;;17.05;;
4272;SDS011;63887;53.656;9.810;2023-03-01T13:24:26;28.42;;;16.33;;
4272;SDS011;63887;53.656;9.810;2023-03-01T13:27:09;20.58;;;16.10;;
4272;SDS011;63887;53.656;9.810;2023-03-01T13:29:47;20.88;;;15.20;;
4272;SDS011;63887;53.656;9.810;2023-03-01T13:32:21;30.17;;;16.40;;
4272;SDS011;63887;53.656;9.810;2023-03-01T13:34:53;20.80;;;16.70;;
4272;SDS011;63887;53.656;9.810;2023-03-01T13:37:23;23.08;;;15.32;;
4272;SDS011;63887;53.656;9.810;2023-03-01T13:39:56;24.83;;;15.25;;
4272;SDS011;63887;53.656;9.810;2023-03-01T13:42:33;21.70;;;15.93;;
4272;SDS011;63887;53.656;9.810;2023-03-01T13:48:01;19.67;;;14.45;;
4272;SDS011;63887;53.656;9.810;2023-03-01T13:50:36;22.95;;;15.07;;
4272;SDS011;63887;53.656;9.810;2023-03-01T13:53:10;24.88;;;15.23;;
4272;SDS011;63887;53.656;9.810;2023-03-01T13:55:41;20.10;;;14.85;;
4272;SDS011;63887;53.656;9.810;2023-03-01T14:00:58;14.80;;;12.65;;
4272;SDS011;63887;53.656;9.810;2023-03-01T14:03:26;19.08;;;13.60;;
4272;SDS011;63887;53.656;9.810;2023-03-01T14:05:59;19.13;;;13.85;;
4272;SDS011;63887;53.656;9.810;2023-03-01T14:08:31;15.93;;;13.23;;
4272;SDS011;63887;53.656;9.810;2023-03-01T14:11:02;20.25;;;14.45;;
4272;SDS011;63887;53.656;9.810;2023-03-01T14:13:51;19.10;;;13.23;;
4272;SDS011;63887;53.656;9.810;2023-03-01T14:16:31;23.05;;;13.48;;
4272;SDS011;63887;53.656;9.810;2023-03-01T14:19:10;23.52;;;16.80;;
4272;SDS011;63887;53.656;9.810;2023-03-01T14:21:43;24.85;;;14.00;;
4272;SDS011;63887;53.656;9.810;2023-03-01T14:24:17;25.80;;;15.18;;
4272;SDS011;63887;53.656;9.810;2023-03-01T14:26:46;26.17;;;16.27;;
4272;SDS011;63887;53.656;9.810;2023-03-01T14:29:24;21.98;;;15.20;;
4272;SDS011;63887;53.656;9.810;2023-03-01T14:31:52;26.17;;;15.68;;
4272;SDS011;63887;53.656;9.810;2023-03-01T14:34:19;21.08;;;15.02;;
4272;SDS011;63887;53.656;9.810;2023-03-01T14:36:47;21.23;;;14.10;;
4272;SDS011;63887;53.656;9.810;2023-03-01T14:39:17;27.17;;;16.75;;
4272;SDS011;63887;53.656;9.810;2023-03-01T14:41:46;19.48;;;15.45;;
4272;SDS011;63887;53.656;9.810;2023-03-01T14:44:14;32.97;;;16.40;;
4272;SDS011;63887;53.656;9.810;2023-03-01T14:46:46;25.13;;;16.02;;
4272;SDS011;63887;53.656;9.810;2023-03-01T14:49:13;29.88;;;17.70;;
4272;SDS011;63887;53.656;9.810;2023-03-01T14:51:46;24.48;;;15.98;;
4272;SDS011;63887;53.656;9.810;2023-03-01T14:54:21;22.17;;;15.05;;
4272;SDS011;63887;53.656;9.810;2023-03-01T14:56:51;27.40;;;16.92;;
4272;SDS011;63887;53.656;9.810;2023-03-01T14:59:19;33.00;;;19.20;;
4272;SDS011;63887;53.656;9.810;2023-03-01T15:01:49;29.67;;;17.90;;
4272;SDS011;63887;53.656;9.810;2023-03-01T15:04:17;28.65;;;16.77;;
4272;SDS011;63887;53.656;9.810;2023-03-01T15:06:45;26.45;;;17.50;;
4272;SDS011;63887;53.656;9.810;2023-03-01T15:09:14;34.58;;;20.23;;